Time;durP1;ratioP1;P1;durP2;ratioP2;P2;SDS_P1;SDS_P2;PMS_P1;PMS_P2;Temp;Humidity;BMP_temperature;BMP_pressure;BME280_temperature;BME280_humidity;BME280_pressure;Samples;Min_cycle;Max_cycle;Signal;HPM_P1;HPM_P2
2022/07/03 00:07:01;;;;;;;4.68;1.25;;;20.20;99.90;;;;;;6715969;88;20184;-77
2022/07/03 00:17:02;;;;;;;2.78;1.10;;;20.00;99.90;;;;;;6715741;88;20211;-77
2022/07/03 00:27:07;;;;;;;3.55;1.35;;;20.10;99.90;;;;;;6716868;88;20319;-77
2022/07/03 00:37:09;;;;;;;2.17;1.05;;;19.80;99.90;;;;;;6699181;88;20194;-78
2022/07/03 00:47:12;;;;;;;4.12;1.17;;;19.40;99.90;;;;;;6699048;88;20211;-77
2022/07/03 00:57:15;;;;;;;6.12;1.95;;;19.60;99.90;;;;;;6698326;88;20741;-77
2022/07/03 01:07:25;;;;;;;3.50;1.33;;;19.50;99.90;;;;;;6698467;88;20240;-77
2022/07/03 01:17:32;;;;;;;4.40;1.52;;;19.40;99.90;;;;;;6698868;88;20684;-79
2022/07/03 01:27:59;;;;;;;3.42;1.50;;;19.30;99.90;;;;;;6699100;88;20284;-77
2022/07/03 01:38:08;;;;;;;4.65;1.40;;;19.00;99.90;;;;;;6698631;88;20236;-78
2022/07/03 01:48:11;;;;;;;4.18;1.40;;;18.70;99.90;;;;;;6699498;88;20719;-78
2022/07/03 01:58:12;;;;;;;4.37;1.48;;;18.60;99.90;;;;;;6703013;88;20327;-77
2022/07/03 02:08:54;;;;;;;3.77;1.40;;;18.60;99.90;;;;;;6708386;88;20189;-77
2022/07/03 02:18:58;;;;;;;2.08;1.30;;;18.30;99.90;;;;;;6704055;88;21191;-77
2022/07/03 02:29:02;;;;;;;2.47;1.33;;;18.10;99.90;;;;;;6714652;88;20261;-77
2022/07/03 02:39:07;;;;;;;5.87;1.70;;;17.80;99.90;;;;;;6719966;88;20255;-79
2022/07/03 02:49:38;;;;;;;4.93;1.50;;;17.70;99.90;;;;;;6697402;88;20359;-78
2022/07/03 02:59:57;;;;;;;5.43;1.70;;;17.50;99.90;;;;;;6697340;88;20202;-78
2022/07/03 03:09:58;;;;;;;3.33;1.50;;;17.30;99.90;;;;;;6701249;88;20182;-79
2022/07/03 03:20:00;;;;;;;2.60;1.70;;;17.20;99.90;;;;;;6697316;88;20681;-78
2022/07/03 03:30:01;;;;;;;4.05;1.55;;;17.30;99.90;;;;;;6699937;88;20208;-78
2022/07/03 03:40:03;;;;;;;3.30;1.70;;;17.20;99.90;;;;;;6703229;88;20704;-79
2022/07/03 03:50:05;;;;;;;5.20;1.70;;;17.10;99.90;;;;;;6699539;88;20577;-78
2022/07/03 04:00:06;;;;;;;3.17;1.65;;;16.90;99.90;;;;;;6700711;88;20663;-77
2022/07/03 04:10:07;;;;;;;4.70;1.67;;;17.00;99.90;;;;;;6703105;88;20209;-76
2022/07/03 04:20:08;;;;;;;4.07;1.90;;;17.00;99.90;;;;;;6699462;88;20617;-79
2022/07/03 04:30:10;;;;;;;3.67;1.83;;;16.90;99.90;;;;;;6703568;88;20181;-77
2022/07/03 04:40:11;;;;;;;3.42;1.80;;;16.70;99.90;;;;;;6698916;88;20345;-77
2022/07/03 05:00:15;;;;;;;3.67;1.55;;;16.80;99.90;;;;;;6723276;88;20200;-78
2022/07/03 05:10:16;;;;;;;5.00;1.48;;;17.40;99.90;;;;;;6738826;88;20275;-78
2022/07/03 05:20:27;;;;;;;3.03;1.40;;;17.40;99.90;;;;;;6732361;88;20209;-78
2022/07/03 05:30:28;;;;;;;2.03;1.35;;;17.50;99.90;;;;;;6725395;88;20185;-79
2022/07/03 05:40:29;;;;;;;5.22;1.00;;;17.50;99.90;;;;;;6723286;88;20671;-78
2022/07/03 05:50:29;;;;;;;2.45;1.20;;;17.50;99.90;;;;;;6723218;88;20264;-79
2022/07/03 06:00:30;;;;;;;3.65;1.10;;;18.10;99.90;;;;;;6723368;88;20196;-78
2022/07/03 06:10:31;;;;;;;3.93;1.20;;;18.80;99.90;;;;;;6723154;88;20172;-79
2022/07/03 06:20:32;;;;;;;4.25;1.30;;;19.40;99.90;;;;;;6722770;88;20192;-79
2022/07/03 06:30:32;;;;;;;2.00;1.10;;;19.80;99.90;;;;;;6722956;88;20210;-79
2022/07/03 06:40:33;;;;;;;5.03;1.20;;;20.80;99.90;;;;;;6709772;88;20198;-79
2022/07/03 06:50:33;;;;;;;4.97;1.48;;;21.50;99.90;;;;;;6720197;88;20260;-79
2022/07/03 07:00:38;;;;;;;2.72;0.90;;;21.80;99.90;;;;;;6708823;88;20632;-79
2022/07/03 07:10:38;;;;;;;6.70;1.10;;;22.30;99.90;;;;;;6716410;88;20608;-79
2022/07/03 07:20:40;;;;;;;4.47;1.40;;;22.80;99.90;;;;;;6725021;88;20190;-78
2022/07/03 07:30:40;;;;;;;5.25;1.40;;;23.00;99.90;;;;;;6725257;88;20225;-79
2022/07/03 07:40:41;;;;;;;3.22;1.50;;;23.90;99.90;;;;;;6733640;88;20243;-79
2022/07/03 07:50:42;;;;;;;5.43;1.20;;;24.00;98.40;;;;;;6723569;88;20194;-79
2022/07/03 08:05:35;;;;;;;3.80;1.50;;;24.60;99.80;;;;;;6726932;88;20219;-80
2022/07/03 08:11:03;;;;;;;4.43;1.55;;;25.20;97.40;;;;;;6719630;88;20659;-77
2022/07/03 08:21:03;;;;;;;3.80;1.30;;;25.40;96.30;;;;;;6722493;88;20208;-79
2022/07/03 08:31:04;;;;;;;5.70;1.30;;;25.90;93.50;;;;;;6715236;88;20239;-77
2022/07/03 08:41:05;;;;;;;3.37;1.50;;;27.10;92.60;;;;;;6720514;88;20198;-79
2022/07/03 08:51:05;;;;;;;3.67;1.52;;;27.30;93.80;;;;;;6723324;88;20254;-78
2022/07/03 09:01:06;;;;;;;6.45;1.60;;;28.00;91.90;;;;;;6723723;88;21062;-79
2022/07/03 09:11:08;;;;;;;4.68;1.40;;;27.60;90.90;;;;;;6726951;88;20652;-78
2022/07/03 09:21:08;;;;;;;3.05;1.40;;;28.80;89.60;;;;;;6702984;88;20251;-77
2022/07/03 09:31:14;;;;;;;4.90;1.50;;;29.40;88.20;;;;;;6711994;88;20644;-80
2022/07/03 09:41:14;;;;;;;4.12;1.50;;;29.00;85.20;;;;;;6713416;88;20560;-78
2022/07/03 09:51:25;;;;;;;6.30;1.62;;;29.60;83.00;;;;;;6724540;88;20281;-78
2022/07/03 10:01:26;;;;;;;2.75;1.60;;;30.40;81.20;;;;;;6704969;88;20728;-79
2022/07/03 10:11:26;;;;;;;3.55;1.50;;;30.80;80.80;;;;;;6704956;88;20186;-80
2022/07/03 10:21:28;;;;;;;3.17;1.40;;;31.20;79.00;;;;;;6707343;88;20700;-80
2022/07/03 10:31:30;;;;;;;4.28;1.60;;;31.90;78.90;;;;;;6712350;88;20194;-78
2022/07/03 10:52:07;;;;;;;4.40;1.70;;;32.40;75.00;;;;;;6746640;88;20198;-80
2022/07/03 11:02:32;;;;;;;;;;;32.70;74.80;;;;;;6729291;77;20238;-77
2022/07/03 11:12:58;;;;;;;5.15;1.33;;;33.10;74.00;;;;;;6716396;88;20066;-77
2022/07/03 11:23:09;;;;;;;1.90;1.10;;;33.80;71.00;;;;;;6710409;88;20237;-78
2022/07/03 11:33:10;;;;;;;2.42;1.20;;;33.70;71.30;;;;;;6705414;88;20207;-77
2022/07/03 11:43:12;;;;;;;1.98;1.10;;;34.00;70.40;;;;;;6718656;88;20305;-77
2022/07/03 11:53:18;;;;;;;3.20;1.15;;;34.80;68.40;;;;;;6712664;88;20215;-77
2022/07/03 12:03:24;;;;;;;2.80;1.42;;;33.20;68.80;;;;;;6712985;88;20178;-78
2022/07/03 12:13:25;;;;;;;4.22;1.20;;;33.20;69.10;;;;;;6723451;88;20698;-78
2022/07/03 12:23:26;;;;;;;;;;;33.00;67.70;;;;;;6710960;88;20206;-79
2022/07/03 12:33:28;;;;;;;3.80;1.20;;;32.50;69.20;;;;;;6720573;88;20140;-78
2022/07/03 12:43:37;;;;;;;5.22;1.20;;;32.40;70.00;;;;;;6721366;88;20744;-78
2022/07/03 12:53:37;;;;;;;5.15;1.20;;;32.50;70.10;;;;;;6712955;88;20198;-78
2022/07/03 13:03:38;;;;;;;3.75;1.20;;;33.10;68.00;;;;;;6719886;88;20210;-77
2022/07/03 13:13:48;;;;;;;3.40;1.30;;;33.60;67.70;;;;;;6714585;88;20208;-77
2022/07/03 13:23:48;;;;;;;3.70;1.25;;;31.70;68.40;;;;;;6716368;88;20223;-78
2022/07/03 13:33:49;;;;;;;2.70;1.20;;;29.60;71.90;;;;;;6714445;88;20189;-77
2022/07/03 13:43:50;;;;;;;3.17;1.20;;;28.40;73.70;;;;;;6718622;88;20219;-77
2022/07/03 13:53:51;;;;;;;4.05;1.08;;;28.80;74.40;;;;;;6715792;88;20314;-78
2022/07/03 14:03:51;;;;;;;2.50;1.30;;;29.00;74.70;;;;;;6712619;88;20272;-78
2022/07/03 14:13:52;;;;;;;4.93;1.10;;;30.60;71.80;;;;;;6720923;88;20198;-77
2022/07/03 14:23:53;;;;;;;2.45;1.25;;;30.60;71.00;;;;;;6712002;88;20585;-77
2022/07/03 14:33:54;;;;;;;4.00;1.00;;;29.40;72.90;;;;;;6724375;88;20190;-77
2022/07/03 14:43:55;;;;;;;3.05;0.90;;;29.50;73.80;;;;;;6717325;88;20324;-77
2022/07/03 14:53:55;;;;;;;6.70;1.10;;;29.50;73.70;;;;;;6726790;88;20319;-77
2022/07/03 15:04:00;;;;;;;2.72;0.95;;;29.60;72.80;;;;;;6720886;88;20212;-77
2022/07/03 15:14:04;;;;;;;3.53;1.00;;;29.40;73.40;;;;;;6721982;88;20222;-77
2022/07/03 15:24:07;;;;;;;3.67;1.20;;;29.00;73.30;;;;;;6715575;88;20211;-77
2022/07/03 15:34:07;;;;;;;3.10;1.20;;;28.40;74.40;;;;;;6717288;88;20195;-77
2022/07/03 15:44:14;;;;;;;1.75;1.00;;;28.30;74.70;;;;;;6724989;88;20207;-76
2022/07/03 15:54:30;;;;;;;3.12;1.00;;;26.80;77.10;;;;;;6723401;88;20200;-77
2022/07/03 16:04:52;;;;;;;1.73;1.05;;;26.10;79.40;;;;;;6722035;88;20651;-77
2022/07/03 16:14:54;;;;;;;2.60;0.98;;;26.00;79.90;;;;;;6715223;88;20608;-77
2022/07/03 16:24:57;;;;;;;3.40;1.10;;;27.80;77.10;;;;;;6723436;88;20183;-76
2022/07/03 16:35:14;;;;;;;4.78;1.27;;;27.40;76.40;;;;;;6720035;88;20265;-77
2022/07/03 16:45:15;;;;;;;2.97;1.10;;;27.20;76.80;;;;;;6720321;88;20673;-77
2022/07/03 16:55:17;;;;;;;3.27;1.30;;;26.70;77.00;;;;;;6715952;88;20220;-77
2022/07/03 17:05:40;;;;;;;2.93;1.27;;;26.00;78.00;;;;;;6751941;77;20568;-81
2022/07/03 17:15:43;;;;;;;4.10;1.45;;;26.30;78.00;;;;;;6759193;88;20243;-80
2022/07/03 17:26:00;;;;;;;3.10;1.30;;;26.50;77.20;;;;;;6755148;88;20189;-79
2022/07/03 17:36:10;;;;;;;5.10;1.10;;;25.90;78.00;;;;;;6757989;88;20286;-80
2022/07/03 17:46:12;;;;;;;1.87;1.25;;;24.80;80.90;;;;;;6749328;88;20658;-81
2022/07/03 17:56:16;;;;;;;2.80;1.00;;;24.20;81.90;;;;;;6743686;88;20306;-82
2022/07/03 18:06:22;;;;;;;5.28;1.27;;;23.90;82.70;;;;;;6744887;88;20288;-82
2022/07/03 18:16:25;;;;;;;3.90;1.12;;;23.80;82.80;;;;;;6740405;88;20260;-82
2022/07/03 18:26:30;;;;;;;2.07;0.90;;;23.50;83.70;;;;;;6741364;88;20192;-82
2022/07/03 18:36:31;;;;;;;2.40;0.82;;;23.60;83.70;;;;;;6740461;88;20227;-83
2022/07/03 18:46:32;;;;;;;3.28;0.70;;;23.40;82.20;;;;;;6739579;88;20900;-82
2022/07/03 18:56:41;;;;;;;4.22;0.80;;;23.20;82.80;;;;;;6739667;88;20219;-82
2022/07/03 19:06:46;;;;;;;1.42;0.70;;;23.20;82.40;;;;;;6736167;88;20364;-80
2022/07/03 19:16:48;;;;;;;2.35;1.00;;;23.00;82.60;;;;;;6736383;88;20212;-82
2022/07/03 19:26:48;;;;;;;1.55;0.70;;;22.60;83.70;;;;;;6737719;88;20172;-82
2022/07/03 19:36:49;;;;;;;4.20;0.90;;;22.40;84.20;;;;;;6750505;88;20189;-82
2022/07/03 19:46:49;;;;;;;4.18;0.80;;;22.00;85.40;;;;;;6749838;88;20276;-79
2022/07/03 19:56:50;;;;;;;2.83;0.90;;;21.80;86.80;;;;;;6742511;88;20196;-81
2022/07/03 20:06:50;;;;;;;8.50;1.00;;;21.60;86.70;;;;;;6745119;88;20214;-79
2022/07/03 20:16:52;;;;;;;2.50;1.10;;;21.40;89.70;;;;;;6739828;88;20188;-80
2022/07/03 20:26:54;;;;;;;2.08;0.90;;;21.10;91.30;;;;;;6738974;88;20307;-79
2022/07/03 20:36:55;;;;;;;2.22;1.15;;;21.10;92.10;;;;;;6738163;88;20180;-79
2022/07/03 20:46:55;;;;;;;2.87;1.10;;;20.80;93.80;;;;;;6736665;88;20353;-79
2022/07/03 20:56:56;;;;;;;3.53;1.20;;;20.80;95.00;;;;;;6737267;88;20324;-81
2022/07/03 21:06:57;;;;;;;2.42;1.25;;;20.70;96.30;;;;;;6734098;88;20235;-82
2022/07/03 21:16:58;;;;;;;4.18;0.93;;;20.50;97.90;;;;;;6751345;88;21100;-81
2022/07/03 21:26:58;;;;;;;4.43;0.93;;;20.50;98.70;;;;;;6736992;88;20214;-81
2022/07/03 21:37:01;;;;;;;2.37;1.00;;;20.20;99.80;;;;;;6755454;88;20223;-80
2022/07/03 21:47:01;;;;;;;2.85;0.90;;;20.00;99.90;;;;;;6750267;88;20251;-81
2022/07/03 21:57:02;;;;;;;2.45;1.40;;;20.00;99.90;;;;;;6749273;88;20224;-81
2022/07/03 22:07:03;;;;;;;2.80;1.20;;;19.80;99.90;;;;;;6754660;88;20213;-80
2022/07/03 22:17:04;;;;;;;3.08;1.20;;;19.50;99.90;;;;;;6746130;88;20208;-79
2022/07/03 22:27:05;;;;;;;3.58;1.00;;;19.40;99.90;;;;;;6745271;88;20195;-81
2022/07/03 22:37:06;;;;;;;4.35;1.25;;;19.20;99.90;;;;;;6745822;88;20224;-80
2022/07/03 22:47:06;;;;;;;4.22;1.25;;;19.10;99.90;;;;;;6745357;88;20217;-80
2022/07/03 22:57:07;;;;;;;5.00;1.20;;;18.90;99.90;;;;;;6749602;87;20230;-79
2022/07/03 23:07:08;;;;;;;2.70;1.23;;;18.70;99.90;;;;;;6759174;88;20157;-80
2022/07/03 23:17:09;;;;;;;3.33;1.30;;;18.50;99.90;;;;;;6764502;87;20185;-79
2022/07/03 23:27:10;;;;;;;4.20;1.12;;;18.30;99.90;;;;;;6753932;88;20161;-79
2022/07/03 23:37:10;;;;;;;2.58;1.25;;;18.00;99.90;;;;;;6758440;88;20757;-78
2022/07/03 23:47:11;;;;;;;3.70;1.20;;;17.80;99.90;;;;;;6761292;88;20216;-78
2022/07/03 23:57:11;;;;;;;4.62;1.20;;;17.50;99.90;;;;;;6763150;88;20250;-78
